Time;durP1;ratioP1;P1;durP2;ratioP2;P2;SDS_P1;SDS_P2;PMS_P1;PMS_P2;Temp;Humidity;BMP_temperature;BMP_pressure;BME280_temperature;BME280_humidity;BME280_pressure;Samples;Min_cycle;Max_cycle;Signal;HPM_P1;HPM_P2
2022/03/12 00:02:23;;;;;;;25.60;10.90;;;;;;;-4.11;49.39;101528.22;213464;1274;143050;-75
2022/03/12 00:07:30;;;;;;;26.80;12.70;;;;;;;-4.12;49.62;101532.08;215695;1274;140872;-74
2022/03/12 00:12:36;;;;;;;24.00;13.20;;;;;;;-4.13;49.71;101526.27;214522;1274;142942;-73
2022/03/12 00:17:44;;;;;;;29.10;14.20;;;;;;;-4.16;49.78;101517.27;215103;1274;140493;-74
2022/03/12 00:22:50;;;;;;;28.10;14.60;;;;;;;-4.19;49.94;101518.16;214028;1274;141582;-71
2022/03/12 00:27:55;;;;;;;32.70;13.00;;;;;;;-4.28;49.96;101519.04;214359;1274;140779;-74
2022/03/12 00:32:59;;;;;;;32.40;13.60;;;;;;;-4.37;50.06;101515.27;214017;1274;141252;-74
2022/03/12 00:38:04;;;;;;;25.40;11.00;;;;;;;-4.46;50.05;101508.36;215351;1274;140475;-75
2022/03/12 00:43:09;;;;;;;27.60;12.10;;;;;;;-4.51;50.39;101505.73;213502;1274;140940;-74
2022/03/12 00:48:16;;;;;;;30.30;10.60;;;;;;;-4.54;50.61;101504.52;214427;1274;140441;-74
2022/03/12 00:53:41;;;;;;;27.10;13.60;;;;;;;-4.54;50.95;101511.11;214678;1273;141300;-74
2022/03/12 00:58:47;;;;;;;28.80;11.30;;;;;;;-4.54;51.00;101513.34;213727;1274;141046;-74
2022/03/12 01:03:52;;;;;;;23.10;11.40;;;;;;;-4.59;51.27;101515.58;213647;1274;140697;-74
2022/03/12 01:08:57;;;;;;;29.70;12.40;;;;;;;-4.67;51.52;101514.05;214547;1274;140443;-74
2022/03/12 01:14:02;;;;;;;33.10;13.20;;;;;;;-4.72;51.81;101522.48;214149;1274;140985;-70
2022/03/12 01:19:07;;;;;;;29.30;12.70;;;;;;;-4.77;52.25;101525.20;214043;1274;141400;-74
2022/03/12 01:24:12;;;;;;;27.50;12.40;;;;;;;-4.82;53.03;101528.48;214181;1274;141953;-74
2022/03/12 01:29:17;;;;;;;25.60;12.00;;;;;;;-4.89;53.36;101523.34;214516;1274;140588;-65
2022/03/12 01:34:20;;;;;;;37.60;16.50;;;;;;;-4.95;53.78;101525.64;214896;1274;142074;-73
2022/03/12 01:39:26;;;;;;;24.10;10.60;;;;;;;-5.02;54.04;101526.36;215132;1275;140881;-72
2022/03/12 01:44:30;;;;;;;29.80;13.90;;;;;;;-5.07;54.58;101522.87;214784;1278;141835;-72
2022/03/12 01:49:35;;;;;;;37.70;14.90;;;;;;;-5.13;54.52;101523.54;215761;1275;140090;-72
2022/03/12 01:54:43;;;;;;;30.50;13.00;;;;;;;-5.19;54.82;101518.15;213760;1275;141247;-72
2022/03/12 01:59:48;;;;;;;37.50;14.40;;;;;;;-5.23;55.28;101511.13;214234;1275;140682;-70
2022/03/12 02:04:53;;;;;;;28.40;14.30;;;;;;;-5.30;55.28;101510.70;215185;1275;141275;-72
2022/03/12 02:09:59;;;;;;;28.90;14.10;;;;;;;-5.36;56.25;101506.23;215765;1274;140959;-71
2022/03/12 02:15:05;;;;;;;35.20;14.80;;;;;;;-5.40;56.30;101501.08;214858;1274;140620;-72
2022/03/12 02:20:09;;;;;;;31.90;13.50;;;;;;;-5.41;56.46;101499.24;214201;1274;141753;-71
2022/03/12 02:25:15;;;;;;;30.70;13.20;;;;;;;-5.44;56.76;101491.73;214476;1274;140646;-71
2022/03/12 02:30:20;;;;;;;36.10;11.80;;;;;;;-5.46;56.58;101481.96;214028;1274;1143741;-71
2022/03/12 02:35:25;;;;;;;23.60;13.10;;;;;;;-5.47;56.59;101478.06;213054;1277;140716;-71
2022/03/12 02:40:30;;;;;;;24.30;10.50;;;;;;;-5.50;56.67;101476.50;213849;1274;142773;-70
2022/03/12 02:45:34;;;;;;;33.50;14.90;;;;;;;-5.57;56.33;101469.65;214569;1274;140687;-68
2022/03/12 02:50:42;;;;;;;27.30;15.80;;;;;;;-5.60;56.09;101463.63;214489;1274;140551;-71
2022/03/12 02:55:47;;;;;;;27.30;11.90;;;;;;;-5.60;56.41;101462.06;213408;1274;140478;-71
2022/03/12 03:00:53;;;;;;;26.60;10.20;;;;;;;-5.61;56.39;101454.84;214670;1274;140544;-71
2022/03/12 03:05:58;;;;;;;29.80;13.10;;;;;;;-5.63;56.29;101454.59;213970;1274;141883;-72
2022/03/12 03:11:10;;;;;;;24.40;12.20;;;;;;;-5.63;56.21;101462.23;214281;1274;222194;-71
2022/03/12 03:16:21;;;;;;;29.90;12.40;;;;;;;-5.65;56.17;101464.77;215100;1274;141446;-72
2022/03/12 03:21:27;;;;;;;83.80;31.30;;;;;;;-5.65;56.14;101463.76;213702;1274;142511;-71
2022/03/12 03:26:35;;;;;;;44.10;20.90;;;;;;;-5.68;56.11;101456.95;213578;1274;141626;-70
2022/03/12 03:31:39;;;;;;;26.40;13.50;;;;;;;-5.70;56.09;101455.89;215127;1274;141257;-71
2022/03/12 03:36:45;;;;;;;19.50;11.90;;;;;;;-5.72;56.17;101456.13;213541;1274;141639;-69
2022/03/12 03:41:49;;;;;;;27.70;16.20;;;;;;;-5.75;56.16;101458.41;214461;1276;144828;-70
2022/03/12 03:46:52;;;;;;;25.10;12.80;;;;;;;-5.80;56.26;101457.27;215531;1274;140505;-71
2022/03/12 03:51:58;;;;;;;19.80;8.50;;;;;;;-5.80;56.53;101454.35;215441;1274;140280;-71
2022/03/12 03:57:05;;;;;;;30.20;12.00;;;;;;;-5.78;56.50;101449.89;215346;1274;141879;-71
2022/03/12 04:02:11;;;;;;;29.30;12.80;;;;;;;-5.76;56.84;101447.55;216054;1274;141620;-70
2022/03/12 04:07:15;;;;;;;26.30;11.20;;;;;;;-5.77;56.86;101444.80;216000;1274;140301;-72
2022/03/12 04:12:22;;;;;;;22.20;11.50;;;;;;;-5.78;56.92;101447.13;215129;1274;140027;-71
2022/03/12 04:17:28;;;;;;;27.60;11.50;;;;;;;-5.74;56.96;101446.08;213472;1274;141896;-71
2022/03/12 04:22:32;;;;;;;29.80;14.90;;;;;;;-5.63;56.94;101443.02;214798;1274;141525;-70
2022/03/12 04:27:38;;;;;;;29.50;13.70;;;;;;;-5.48;56.68;101440.56;213533;1274;152403;-72
2022/03/12 04:32:43;;;;;;;36.40;15.40;;;;;;;-5.34;56.74;101441.45;213156;1274;141518;-68
2022/03/12 04:37:48;;;;;;;48.30;18.20;;;;;;;-5.35;56.80;101443.39;214605;1274;139994;-68
2022/03/12 04:42:54;;;;;;;37.40;18.00;;;;;;;-5.42;56.71;101441.23;214542;1274;140480;-69
2022/03/12 04:47:58;;;;;;;37.10;16.00;;;;;;;-5.56;56.90;101447.94;213698;1274;143455;-69
2022/03/12 04:53:02;;;;;;;34.50;13.90;;;;;;;-5.66;56.99;101440.94;213895;1274;140679;-71
2022/03/12 04:58:07;;;;;;;31.30;14.60;;;;;;;-5.75;57.18;101441.64;213775;1274;141365;-69
2022/03/12 05:03:19;;;;;;;25.40;12.10;;;;;;;-5.80;57.50;101440.02;213852;1274;142083;-71
2022/03/12 05:08:36;;;;;;;31.80;14.90;;;;;;;-5.84;57.38;101439.05;214163;1274;140953;-73
2022/03/12 05:13:41;;;;;;;26.10;11.30;;;;;;;-5.89;57.22;101435.70;214396;1274;142733;-71
2022/03/12 05:18:46;;;;;;;17.90;9.60;;;;;;;-5.91;57.28;101440.30;214030;1274;143030;-72
2022/03/12 05:23:51;;;;;;;24.50;10.20;;;;;;;-5.91;57.16;101435.33;214565;1274;141054;-72
2022/03/12 05:28:55;;;;;;;19.80;11.90;;;;;;;-5.90;57.49;101431.27;213454;1274;142110;-73
2022/03/12 05:34:00;;;;;;;30.20;13.00;;;;;;;-5.85;57.30;101427.70;213685;1274;141859;-72
2022/03/12 05:39:04;;;;;;;19.70;10.60;;;;;;;-5.75;57.51;101423.41;213699;1274;141349;-70
2022/03/12 05:44:14;;;;;;;24.60;11.70;;;;;;;-5.60;57.40;101423.58;213915;1274;141750;-68
2022/03/12 05:49:19;;;;;;;22.80;11.10;;;;;;;-5.45;57.31;101422.52;214135;1274;142316;-70
2022/03/12 05:54:23;;;;;;;20.40;10.00;;;;;;;-5.28;57.25;101430.38;216101;1274;140263;-71
2022/03/12 05:59:27;;;;;;;19.80;9.10;;;;;;;-5.12;57.06;101423.45;216202;1274;141757;-71
2022/03/12 06:04:33;;;;;;;24.00;11.70;;;;;;;-4.91;56.58;101424.45;216082;1274;140668;-71
2022/03/12 06:09:37;;;;;;;31.50;11.70;;;;;;;-4.72;56.65;101419.61;216097;1274;140896;-71
2022/03/12 06:14:41;;;;;;;31.40;12.70;;;;;;;-4.53;56.38;101414.27;215971;1273;140925;-71
2022/03/12 06:19:44;;;;;;;20.00;10.60;;;;;;;-4.33;56.38;101411.78;213878;1274;140428;-71
2022/03/12 06:24:49;;;;;;;23.90;12.20;;;;;;;-4.12;56.14;101411.45;216055;1273;141960;-70
2022/03/12 06:29:55;;;;;;;25.60;13.00;;;;;;;-3.91;55.84;101403.48;214446;1273;141897;-69
2022/03/12 06:34:59;;;;;;;21.00;11.00;;;;;;;-3.71;55.56;101398.14;213889;1276;140726;-69
2022/03/12 06:40:06;;;;;;;20.00;9.20;;;;;;;-3.48;55.21;101395.86;213860;1274;140663;-75
2022/03/12 06:45:15;;;;;;;18.70;9.50;;;;;;;-3.24;54.82;101392.29;213651;1276;140889;-71
2022/03/12 06:50:22;;;;;;;12.10;8.20;;;;;;;-2.97;54.70;101388.90;214611;1274;140492;-72
2022/03/12 06:55:29;;;;;;;15.00;8.80;;;;;;;-2.70;54.05;101390.58;214203;1274;140752;-74
2022/03/12 07:00:33;;;;;;;20.70;8.70;;;;;;;-2.26;53.56;101396.78;214114;1274;139909;-72
2022/03/12 07:05:40;;;;;;;17.90;9.00;;;;;;;-1.63;52.98;101398.71;213531;1274;140635;-76
2022/03/12 07:10:44;;;;;;;19.50;9.20;;;;;;;-1.15;52.08;101395.26;213135;1274;140673;-76
2022/03/12 07:15:50;;;;;;;20.40;8.30;;;;;;;-0.41;51.31;101397.72;214603;1274;140238;-73
2022/03/12 07:20:54;;;;;;;16.90;8.60;;;;;;;0.69;50.32;101395.70;213337;1274;139946;-68
2022/03/12 07:25:58;;;;;;;19.80;9.90;;;;;;;2.31;49.36;101393.35;213703;1273;141233;-76
2022/03/12 07:31:02;;;;;;;17.60;11.00;;;;;;;3.68;47.67;101388.38;215430;1273;139804;-81
2022/03/12 07:36:05;;;;;;;16.10;7.80;;;;;;;4.82;46.36;101388.86;213408;1273;139833;-72
2022/03/12 07:41:09;;;;;;;11.90;9.20;;;;;;;5.71;44.53;101388.43;214653;1273;208945;-80
2022/03/12 07:46:13;;;;;;;17.00;10.50;;;;;;;6.15;43.23;101398.51;213470;1273;140323;-76
2022/03/12 07:51:19;;;;;;;16.40;9.80;;;;;;;6.38;42.91;101394.30;215326;1273;140563;-77
2022/03/12 07:56:23;;;;;;;10.70;6.80;;;;;;;6.59;42.11;101385.20;215021;1274;140526;-74
2022/03/12 08:01:28;;;;;;;15.20;9.00;;;;;;;6.51;41.18;101381.86;213831;1273;140441;-69
2022/03/12 08:06:34;;;;;;;14.60;7.90;;;;;;;6.22;40.89;101376.92;214725;1272;139539;-74
2022/03/12 08:11:38;;;;;;;11.70;6.10;;;;;;;6.00;40.24;101374.38;214823;1273;142013;-75
2022/03/12 08:16:44;;;;;;;10.60;6.70;;;;;;;5.85;40.39;101370.84;216127;1272;140130;-74
2022/03/12 08:21:50;;;;;;;10.40;5.90;;;;;;;5.75;40.27;101369.60;215985;1273;140763;-76
2022/03/12 08:26:55;;;;;;;13.80;6.50;;;;;;;5.58;39.77;101366.36;215304;1273;139969;-77
2022/03/12 08:31:59;;;;;;;11.70;7.00;;;;;;;5.43;39.56;101367.55;215974;1273;142060;-75
2022/03/12 08:37:04;;;;;;;10.80;6.60;;;;;;;5.47;40.10;101360.42;213895;1273;140871;-73
2022/03/12 08:42:09;;;;;;;12.30;5.80;;;;;;;5.66;40.13;101350.63;214268;1274;139758;-74
2022/03/12 08:47:14;;;;;;;9.40;5.50;;;;;;;5.66;39.49;101349.21;213926;1273;141204;-77
2022/03/12 08:52:20;;;;;;;13.20;5.40;;;;;;;5.70;39.62;101343.70;214291;1273;139675;-73
2022/03/12 08:57:25;;;;;;;11.30;5.30;;;;;;;5.91;39.99;101342.70;214248;1273;141311;-74
2022/03/12 09:02:29;;;;;;;5.10;3.30;;;;;;;6.01;39.28;101347.61;214225;1273;139730;-74
2022/03/12 09:07:35;;;;;;;8.00;5.20;;;;;;;6.14;38.45;101354.84;213732;1273;144917;-73
2022/03/12 09:12:41;;;;;;;7.80;4.40;;;;;;;6.18;38.26;101364.17;213993;1273;140369;-75
2022/03/12 09:17:45;;;;;;;9.90;5.30;;;;;;;6.30;38.25;101363.38;213694;1273;139682;-75
2022/03/12 09:22:50;;;;;;;10.50;5.90;;;;;;;6.35;37.56;101363.85;215336;1274;140274;-81
2022/03/12 09:27:54;;;;;;;10.40;5.80;;;;;;;6.50;37.47;101355.27;214123;1274;139534;-71
2022/03/12 09:32:59;;;;;;;8.70;4.80;;;;;;;6.66;37.42;101336.92;213222;1274;140367;-69
2022/03/12 09:38:04;;;;;;;9.10;6.00;;;;;;;6.78;36.19;101336.67;214535;1274;140461;-70
2022/03/12 09:43:08;;;;;;;7.40;5.50;;;;;;;6.64;35.24;101334.32;214725;1274;139860;-68
2022/03/12 09:48:13;;;;;;;11.80;6.60;;;;;;;6.62;36.03;101338.27;214075;1274;139371;-67
2022/03/12 09:53:17;;;;;;;12.90;6.20;;;;;;;6.84;35.82;101325.37;214200;1274;140081;-65
2022/03/12 09:58:20;;;;;;;11.30;7.00;;;;;;;7.01;35.23;101317.58;213660;1274;141418;-67
2022/03/12 10:03:24;;;;;;;11.50;6.70;;;;;;;6.96;34.29;101316.27;215924;1274;142309;-70
2022/03/12 10:08:27;;;;;;;6.90;5.40;;;;;;;6.91;34.06;101317.02;213852;1274;206188;-69
2022/03/12 10:13:31;;;;;;;6.80;5.50;;;;;;;7.00;34.37;101311.84;215250;1274;140433;-70
2022/03/12 10:18:36;;;;;;;15.50;5.80;;;;;;;7.24;34.37;101297.70;215991;1274;139567;-71
2022/03/12 10:23:40;;;;;;;7.60;4.50;;;;;;;7.47;34.36;101304.98;215704;1274;141089;-70
2022/03/12 10:28:44;;;;;;;11.10;5.60;;;;;;;7.78;34.24;101299.58;215310;1274;140391;-71
2022/03/12 10:33:49;;;;;;;7.20;4.90;;;;;;;7.82;33.65;101290.09;215067;1274;140405;-73
2022/03/12 10:38:55;;;;;;;12.60;5.20;;;;;;;7.95;33.97;101285.15;215066;1274;141681;-70
2022/03/12 10:43:58;;;;;;;7.20;5.00;;;;;;;8.09;33.50;101284.60;215135;1274;141635;-72
2022/03/12 10:49:03;;;;;;;6.30;4.30;;;;;;;8.31;33.57;101283.35;213872;1275;140889;-86
2022/03/12 10:54:15;;;;;;;17.40;9.40;;;;;;;8.48;33.14;101272.58;215292;1274;160308;-81
2022/03/12 10:59:27;;;;;;;10.20;6.50;;;;;;;8.50;32.96;101272.16;214139;1274;141260;-70
2022/03/12 11:04:36;;;;;;;12.60;6.90;;;;;;;8.45;32.27;101273.16;213370;1274;141029;-71
2022/03/12 11:09:40;;;;;;;13.60;7.80;;;;;;;8.36;32.18;101269.54;214498;1274;143515;-72
2022/03/12 11:14:48;;;;;;;7.90;5.40;;;;;;;8.33;31.80;101269.29;214406;1274;231133;-71
2022/03/12 11:19:57;;;;;;;7.10;4.70;;;;;;;8.39;31.68;101261.83;214681;1274;140180;-71
2022/03/12 11:25:01;;;;;;;10.20;7.50;;;;;;;8.56;31.87;101261.64;214140;1273;139077;-68
2022/03/12 11:30:08;;;;;;;8.00;5.70;;;;;;;8.77;31.75;101259.47;214318;1274;140577;-73
2022/03/12 11:35:17;;;;;;;22.40;14.40;;;;;;;8.66;30.86;101253.64;213325;1274;140813;-71
2022/03/12 11:40:22;;;;;;;7.80;5.30;;;;;;;8.57;31.28;101244.35;214031;1274;142830;-72
2022/03/12 11:45:30;;;;;;;8.70;6.50;;;;;;;8.72;31.76;101239.24;214237;1274;140209;-72
2022/03/12 11:50:35;;;;;;;63.00;30.30;;;;;;;8.80;31.26;101222.98;214638;1274;140124;-73
2022/03/12 11:55:43;;;;;;;7.40;5.70;;;;;;;8.69;30.48;101222.48;214304;1274;140364;-71
2022/03/12 12:00:48;;;;;;;100.00;44.20;;;;;;;8.71;30.60;101218.89;213604;1274;139985;-77
2022/03/12 12:06:03;;;;;;;9.50;5.20;;;;;;;8.73;30.47;101220.59;214664;1274;141589;-69
2022/03/12 12:11:35;;;;;;;57.80;26.60;;;;;;;8.71;29.69;101207.69;215261;1274;142304;-70
2022/03/12 12:16:43;;;;;;;6.30;3.80;;;;;;;8.65;29.89;101208.52;214620;1274;140413;-77
2022/03/12 12:21:47;;;;;;;7.70;5.70;;;;;;;8.78;30.11;101203.36;214835;1274;142755;-80
2022/03/12 12:27:03;;;;;;;7.70;4.40;;;;;;;9.00;30.72;101197.50;216057;1274;141341;-78
2022/03/12 12:32:08;;;;;;;10.70;3.70;;;;;;;9.19;30.59;101189.78;215086;1274;140153;-77
2022/03/12 12:37:16;;;;;;;10.20;4.80;;;;;;;9.23;30.35;101186.17;215076;1275;141645;-75
2022/03/12 12:42:39;;;;;;;5.90;3.90;;;;;;;9.33;30.47;101189.59;215926;1274;140772;-74
2022/03/12 12:47:43;;;;;;;5.10;4.30;;;;;;;9.24;29.85;101183.77;215744;1274;140491;-74
2022/03/12 12:53:12;;;;;;;7.00;4.60;;;;;;;9.23;30.11;101184.98;213596;1274;139898;-71
2022/03/12 12:58:17;;;;;;;10.00;3.20;;;;;;;9.18;29.69;101183.92;215009;1274;141607;-72
2022/03/12 13:03:22;;;;;;;8.10;5.30;;;;;;;9.06;28.97;101183.16;214639;1274;140573;-71
2022/03/12 13:08:46;;;;;;;8.70;4.40;;;;;;;8.95;29.04;101177.47;213995;1273;142080;-72
2022/03/12 13:13:59;;;;;;;4.40;3.30;;;;;;;8.95;28.97;101175.07;214079;1274;151391;-73
2022/03/12 13:19:03;;;;;;;5.30;3.60;;;;;;;8.87;28.45;101168.55;214793;1274;140381;-71
2022/03/12 13:24:19;;;;;;;9.10;4.30;;;;;;;8.81;28.44;101170.97;214439;1274;139940;-71
2022/03/12 13:29:24;;;;;;;5.00;3.10;;;;;;;8.79;28.45;101159.11;213352;1274;140355;-68
2022/03/12 13:34:27;;;;;;;7.50;4.40;;;;;;;8.74;28.13;101152.75;213487;1274;140927;-68
2022/03/12 13:39:36;;;;;;;6.40;3.20;;;;;;;8.76;28.28;101151.60;213524;1274;141202;-82
2022/03/12 13:44:45;;;;;;;5.00;3.40;;;;;;;8.79;28.21;101145.04;214256;1274;141059;-74
2022/03/12 13:49:52;;;;;;;5.50;3.50;;;;;;;8.67;28.20;101137.33;214459;1273;141400;-69
2022/03/12 13:55:00;;;;;;;4.50;3.10;;;;;;;8.67;28.56;101136.80;214000;1273;140861;-77
2022/03/12 14:00:09;;;;;;;5.10;3.40;;;;;;;8.64;27.97;101128.83;213927;1273;140932;-77
2022/03/12 14:05:38;;;;;;;6.50;4.60;;;;;;;8.52;28.06;101124.58;213880;1273;141902;-76
2022/03/12 14:10:47;;;;;;;3.80;3.40;;;;;;;8.48;28.28;101121.23;213974;1273;142304;-74
2022/03/12 14:15:51;;;;;;;7.50;4.30;;;;;;;8.51;28.37;101124.29;214884;1273;140035;-79
2022/03/12 14:20:55;;;;;;;5.90;3.40;;;;;;;8.57;28.60;101126.13;215792;1273;139969;-81
2022/03/12 14:26:00;;;;;;;8.50;3.90;;;;;;;8.54;27.99;101123.36;215096;1273;139895;-68
2022/03/12 14:31:03;;;;;;;16.20;12.50;;;;;;;8.43;28.02;101119.81;214496;1273;513292;-76
2022/03/12 14:36:07;;;;;;;9.10;4.30;;;;;;;8.43;28.48;101118.96;214554;1274;142161;-79
2022/03/12 14:41:12;;;;;;;8.30;4.90;;;;;;;8.41;28.51;101119.15;213816;1273;141195;-80
2022/03/12 14:46:15;;;;;;;4.50;3.50;;;;;;;8.25;27.99;101122.37;216336;1273;140619;-81
2022/03/12 14:51:19;;;;;;;6.70;4.40;;;;;;;8.12;28.38;101115.98;215826;1274;143185;-74
2022/03/12 14:56:25;;;;;;;6.30;3.90;;;;;;;8.04;28.18;101114.48;215274;1273;142369;-74
2022/03/12 15:01:29;;;;;;;14.80;5.10;;;;;;;8.03;28.33;101105.40;214484;1273;139743;-69
2022/03/12 15:06:35;;;;;;;8.40;4.60;;;;;;;7.93;28.16;101106.79;215216;1274;141011;-73
2022/03/12 15:11:40;;;;;;;5.10;3.80;;;;;;;7.77;28.31;101102.39;214290;1273;141071;-75
2022/03/12 15:16:48;;;;;;;5.30;4.00;;;;;;;7.55;28.00;101100.77;213232;1273;139739;-68
2022/03/12 15:21:55;;;;;;;8.90;4.80;;;;;;;7.37;28.49;101095.97;214595;1273;141861;-71
2022/03/12 15:27:09;;;;;;;6.80;4.60;;;;;;;7.29;28.72;101093.23;213990;1273;140452;-76
2022/03/12 15:32:20;;;;;;;8.10;5.40;;;;;;;7.23;28.98;101085.76;213987;1273;139726;-79
2022/03/12 15:37:36;;;;;;;5.00;3.40;;;;;;;7.08;29.05;101087.67;214036;1273;140497;-77
2022/03/12 15:42:46;;;;;;;4.70;3.10;;;;;;;6.90;29.12;101085.21;213999;1274;140578;-77
2022/03/12 15:47:51;;;;;;;7.30;4.70;;;;;;;6.76;29.04;101079.05;213402;1273;142022;-75
2022/03/12 15:52:55;;;;;;;9.10;5.70;;;;;;;6.64;29.37;101077.52;213947;1273;141322;-76
2022/03/12 15:57:59;;;;;;;7.90;4.40;;;;;;;6.50;29.33;101071.85;213548;1273;141854;-77
2022/03/12 16:03:03;;;;;;;8.20;4.10;;;;;;;6.30;29.44;101070.29;214468;1273;150095;-78
2022/03/12 16:08:08;;;;;;;4.70;3.60;;;;;;;6.13;30.25;101067.46;215450;1273;139844;-75
2022/03/12 16:13:13;;;;;;;17.00;4.80;;;;;;;6.03;30.19;101068.11;214698;1273;141258;-73
2022/03/12 16:18:18;;;;;;;8.90;5.20;;;;;;;5.90;30.27;101069.67;215668;1273;140684;-74
2022/03/12 16:23:28;;;;;;;9.30;5.10;;;;;;;5.75;30.83;101071.20;214631;1273;139492;-75
2022/03/12 16:28:33;;;;;;;11.20;5.00;;;;;;;5.55;31.23;101070.37;213616;1275;139941;-72
2022/03/12 16:33:40;;;;;;;6.00;4.00;;;;;;;5.29;32.08;101063.48;215588;1273;140218;-77
2022/03/12 16:38:44;;;;;;;13.50;5.00;;;;;;;4.96;31.80;101062.81;215565;1273;140417;-74
2022/03/12 16:43:51;;;;;;;7.30;4.10;;;;;;;4.66;32.58;101069.39;216136;1273;140249;-78
2022/03/12 16:48:55;;;;;;;11.60;5.70;;;;;;;4.33;32.94;101073.30;215386;1274;139660;-75
2022/03/12 16:53:59;;;;;;;10.30;4.90;;;;;;;3.99;33.53;101072.77;215151;1273;141980;-72
2022/03/12 16:59:04;;;;;;;12.90;5.60;;;;;;;3.63;34.59;101071.64;214630;1273;139718;-76
2022/03/12 17:04:08;;;;;;;11.90;6.70;;;;;;;3.35;35.18;101069.23;216074;1273;141232;-78
2022/03/12 17:09:17;;;;;;;12.60;6.20;;;;;;;3.11;36.23;101066.38;215631;1273;140766;-75
2022/03/12 17:14:21;;;;;;;19.80;8.60;;;;;;;2.87;37.85;101070.67;215486;1274;140990;-74
2022/03/12 17:19:29;;;;;;;14.60;7.40;;;;;;;2.61;38.18;101070.02;214116;1273;140628;-74
2022/03/12 17:24:33;;;;;;;23.00;10.50;;;;;;;2.34;38.95;101067.86;215259;1273;140275;-71
2022/03/12 17:29:39;;;;;;;21.20;10.80;;;;;;;2.08;39.26;101065.11;214646;1273;140863;-73
2022/03/12 17:34:44;;;;;;;25.10;12.50;;;;;;;1.86;40.10;101066.20;213300;1273;143716;-72
2022/03/12 17:39:48;;;;;;;50.50;20.90;;;;;;;1.65;41.44;101060.48;213903;1274;140288;-74
2022/03/12 17:44:52;;;;;;;34.60;15.20;;;;;;;1.41;41.48;101062.59;214152;1273;139716;-74
2022/03/12 17:50:00;;;;;;;50.90;20.10;;;;;;;1.14;42.04;101062.73;213151;1273;140945;-75
2022/03/12 17:55:12;;;;;;;41.30;17.60;;;;;;;0.95;43.40;101058.98;214539;1273;139972;-74
2022/03/12 18:00:24;;;;;;;56.50;19.70;;;;;;;0.80;43.99;101057.77;213851;1273;139853;-76
2022/03/12 18:05:30;;;;;;;43.80;19.60;;;;;;;0.66;43.95;101061.95;214022;1273;139919;-72
2022/03/12 18:10:34;;;;;;;54.60;25.30;;;;;;;0.55;44.45;101061.60;214103;1273;140273;-69
2022/03/12 18:15:39;;;;;;;50.40;22.40;;;;;;;0.40;45.38;101057.88;214692;1273;140572;-81
2022/03/12 18:20:43;;;;;;;78.80;30.50;;;;;;;0.22;45.60;101054.20;214053;1273;141026;-73
2022/03/12 18:25:50;;;;;;;137.70;56.90;;;;;;;0.09;46.20;101053.45;213394;1273;209008;-74
2022/03/12 18:30:54;;;;;;;100.90;43.60;;;;;;;-0.01;46.20;101054.35;214540;1273;141231;-73
2022/03/12 18:35:58;;;;;;;76.10;32.70;;;;;;;-0.13;47.34;101056.66;214784;1274;141051;-72
2022/03/12 18:41:05;;;;;;;57.70;23.00;;;;;;;-0.28;47.54;101056.06;214939;1274;140787;-74
2022/03/12 18:46:10;;;;;;;43.40;19.10;;;;;;;-0.40;48.16;101057.75;215245;1274;141164;-73
2022/03/12 18:51:17;;;;;;;52.40;21.80;;;;;;;-0.48;49.35;101054.92;216203;1274;141848;-74
2022/03/12 18:56:21;;;;;;;68.50;28.20;;;;;;;-0.59;49.81;101045.12;216116;1274;140945;-76
2022/03/12 19:01:25;;;;;;;73.00;30.50;;;;;;;-0.71;49.92;101050.11;216273;1274;140783;-76
2022/03/12 19:06:39;;;;;;;58.40;26.40;;;;;;;-0.79;50.66;101052.91;215191;1274;140886;-74
2022/03/12 19:11:45;;;;;;;59.10;25.80;;;;;;;-0.92;51.22;101053.34;216119;1274;140902;-74
2022/03/12 19:16:56;;;;;;;58.50;27.30;;;;;;;-1.05;51.42;101050.59;215438;1274;142154;-74
2022/03/12 19:22:01;;;;;;;66.80;32.20;;;;;;;-1.17;51.96;101055.02;215561;1274;141594;-74
2022/03/12 19:27:09;;;;;;;77.50;29.30;;;;;;;-1.23;52.27;101059.55;214862;1274;140567;-72
2022/03/12 19:32:20;;;;;;;;;;;;;;;-1.31;52.72;101062.36;213844;1274;140192;-71
2022/03/12 19:37:26;;;;;;;88.70;37.70;;;;;;;-1.46;52.86;101062.17;214056;1274;126516;-73
2022/03/12 19:42:31;;;;;;;82.40;38.50;;;;;;;-1.53;52.91;101065.84;214790;1274;140362;-73
2022/03/12 19:47:34;;;;;;;77.10;39.70;;;;;;;-1.55;53.32;101070.73;213896;1274;140546;-66
2022/03/12 19:52:39;;;;;;;100.70;46.70;;;;;;;-1.64;53.64;101071.80;213363;1274;141016;-73
2022/03/12 19:57:45;;;;;;;190.70;75.30;;;;;;;-1.74;53.91;101073.80;214306;1274;141166;-73
2022/03/12 20:02:50;;;;;;;181.70;77.40;;;;;;;-1.80;53.74;101076.55;214173;1274;141036;-73
2022/03/12 20:07:56;;;;;;;232.00;96.50;;;;;;;-1.91;53.97;101072.75;213152;1274;140741;-68
2022/03/12 20:13:04;;;;;;;233.50;100.50;;;;;;;-1.96;53.72;101075.24;213421;1274;140398;-71
2022/03/12 20:18:08;;;;;;;196.60;81.60;;;;;;;-2.02;53.74;101074.68;214099;1271;142011;-66
2022/03/12 20:23:12;;;;;;;159.90;66.40;;;;;;;-2.16;54.01;101074.60;215141;1274;140744;-75
2022/03/12 20:28:16;;;;;;;161.10;65.00;;;;;;;-2.25;54.45;101069.91;213936;1273;140991;-73
2022/03/12 20:33:23;;;;;;;158.90;68.90;;;;;;;-2.30;54.82;101071.36;214177;1274;141127;-74
2022/03/12 20:38:26;;;;;;;139.90;61.30;;;;;;;-2.30;55.29;101071.52;214289;1274;141396;-75
2022/03/12 20:43:31;;;;;;;164.00;65.10;;;;;;;-2.37;55.70;101068.55;215378;1274;140622;-76
2022/03/12 20:48:34;;;;;;;141.20;57.70;;;;;;;-2.46;55.84;101067.48;215257;1274;140658;-76
2022/03/12 20:53:39;;;;;;;136.80;55.90;;;;;;;-2.55;56.02;101066.29;215795;1274;141072;-76
2022/03/12 20:58:43;;;;;;;136.40;56.50;;;;;;;-2.63;55.90;101064.84;215565;1274;142001;-71
2022/03/12 21:03:47;;;;;;;148.90;60.80;;;;;;;-2.69;56.13;101058.85;215098;1274;141570;-76
2022/03/12 21:08:51;;;;;;;131.40;61.00;;;;;;;-2.73;56.50;101052.92;216039;1274;140979;-76
2022/03/12 21:13:56;;;;;;;155.50;67.70;;;;;;;-2.77;57.16;101046.12;215412;1273;141114;-67
2022/03/12 21:19:01;;;;;;;142.20;64.90;;;;;;;-2.82;57.11;101047.71;215123;1274;141286;-74
2022/03/12 21:24:06;;;;;;;143.70;63.70;;;;;;;-2.87;57.28;101048.10;214787;1274;141124;-74
2022/03/12 21:29:11;;;;;;;154.20;66.90;;;;;;;-2.96;57.74;101052.58;213444;1274;140450;-74
2022/03/12 21:34:17;;;;;;;180.50;72.30;;;;;;;-3.01;57.76;101059.54;213661;1274;141847;-72
2022/03/12 21:39:22;;;;;;;173.10;73.30;;;;;;;-3.09;57.82;101057.01;213538;1274;140467;-74
2022/03/12 21:44:27;;;;;;;183.20;83.10;;;;;;;-3.11;57.94;101055.80;214780;1274;140841;-74
2022/03/12 21:49:31;;;;;;;175.40;77.00;;;;;;;-3.07;58.34;101051.61;214256;1274;141428;-69
2022/03/12 21:54:36;;;;;;;159.40;72.10;;;;;;;-3.08;58.75;101048.95;213785;1274;141988;-73
2022/03/12 21:59:40;;;;;;;163.80;72.40;;;;;;;-3.19;58.86;101044.39;213518;1274;140437;-75
2022/03/12 22:04:49;;;;;;;146.00;64.50;;;;;;;-3.26;59.12;101031.02;214161;1274;140982;-74
2022/03/12 22:09:53;;;;;;;147.40;68.00;;;;;;;-3.35;59.23;101024.94;214058;1274;141037;-74
2022/03/12 22:14:57;;;;;;;148.40;66.20;;;;;;;-3.43;59.31;101022.52;214253;1274;140726;-72
2022/03/12 22:20:04;;;;;;;126.70;64.20;;;;;;;-3.47;59.54;101016.09;213339;1274;141529;-65
2022/03/12 22:25:09;;;;;;;163.40;70.30;;;;;;;-3.48;60.04;101015.48;213599;1274;140789;-72
2022/03/12 22:30:14;;;;;;;168.00;75.10;;;;;;;-3.47;60.31;101012.44;214886;1274;140329;-72
2022/03/12 22:35:19;;;;;;;173.50;74.10;;;;;;;-3.50;60.71;101007.42;214746;1274;143595;-72
2022/03/12 22:40:30;;;;;;;153.80;71.20;;;;;;;-3.57;60.71;101017.53;213644;1274;142450;-68
2022/03/12 22:45:36;;;;;;;157.40;76.60;;;;;;;-3.69;60.97;101015.14;214929;1274;140625;-72
2022/03/12 22:50:41;;;;;;;175.60;81.10;;;;;;;-3.77;61.12;101014.14;215084;1274;140081;-72
2022/03/12 22:55:47;;;;;;;190.30;82.00;;;;;;;-3.75;61.18;101016.92;215737;1274;140845;-72